createdAt,value
2023-11-30T00:01:17.882Z,99671.47
2023-11-30T00:03:44.635Z,99690.22
2023-11-30T00:06:11.417Z,99695.28
2023-11-30T00:08:38.079Z,99658.50
2023-11-30T00:11:08.017Z,99671.41
2023-11-30T00:13:35.302Z,99679.56
2023-11-30T00:16:01.915Z,99673.69
2023-11-30T00:18:30.167Z,99678.19
2023-11-30T00:20:56.771Z,99682.41
2023-11-30T00:23:23.594Z,99672.69
2023-11-30T00:25:50.525Z,99673.91
2023-11-30T00:28:17.069Z,99663.31
2023-11-30T00:30:43.656Z,99666.63
2023-11-30T00:33:10.289Z,99667.66
2023-11-30T00:35:36.861Z,99661.41
2023-11-30T00:38:03.648Z,99656.44
2023-11-30T00:40:30.208Z,99648.81
2023-11-30T00:42:56.837Z,99640.19
2023-11-30T00:45:23.483Z,99634.34
2023-11-30T00:47:50.128Z,99637.28
2023-11-30T00:50:16.781Z,99656.84
2023-11-30T00:52:43.314Z,99648.28
2023-11-30T00:55:09.951Z,99646.53
2023-11-30T00:57:36.744Z,99636.84
2023-11-30T01:00:05.532Z,99646.31
2023-11-30T01:02:32.344Z,99648.31
2023-11-30T01:04:59.216Z,99635.72
2023-11-30T01:07:25.839Z,99625.97
2023-11-30T01:09:52.833Z,99653.50
2023-11-30T01:12:19.449Z,99649.50
2023-11-30T01:14:46.121Z,99655.22
2023-11-30T01:17:12.748Z,99646.75
2023-11-30T01:19:39.278Z,99639.31
2023-11-30T01:22:07.807Z,99647.13
2023-11-30T01:24:34.344Z,99648.22
2023-11-30T01:27:01.068Z,99645.25
2023-11-30T01:29:27.605Z,99642.28
2023-11-30T01:31:54.518Z,99641.56
2023-11-30T01:34:21.142Z,99633.34
2023-11-30T01:36:47.671Z,99623.13
2023-11-30T01:39:16.886Z,99615.50
2023-11-30T01:41:43.597Z,99622.50
2023-11-30T01:44:11.381Z,99619.53
2023-11-30T01:46:38.763Z,99622.88
2023-11-30T01:49:09.271Z,99600.59
2023-11-30T01:51:36.523Z,99601.28
2023-11-30T01:54:04.463Z,99611.34
2023-11-30T01:56:31.278Z,99621.09
2023-11-30T01:58:58.014Z,99610.75
2023-11-30T02:01:28.465Z,99610.81
2023-11-30T02:03:55.477Z,99604.56
2023-11-30T02:06:22.125Z,99598.06
2023-11-30T02:08:48.785Z,99578.38
2023-11-30T02:11:15.581Z,99582.28
2023-11-30T02:13:42.095Z,99581.44
2023-11-30T02:16:09.425Z,99583.75
2023-11-30T02:18:36.120Z,99590.31
2023-11-30T02:21:02.729Z,99585.63
2023-11-30T02:23:29.518Z,99583.31
2023-11-30T02:25:56.179Z,99576.44
2023-11-30T02:28:22.695Z,99571.78
2023-11-30T02:30:51.180Z,99553.25
2023-11-30T02:33:17.876Z,99578.72
2023-11-30T02:35:44.530Z,99578.75
2023-11-30T02:38:11.090Z,99580.09
2023-11-30T02:40:37.642Z,99562.03
2023-11-30T02:43:04.553Z,99584.59
2023-11-30T02:45:31.154Z,99574.44
2023-11-30T02:47:58.029Z,99576.44
2023-11-30T02:50:24.788Z,99578.97
2023-11-30T02:52:51.820Z,99566.25
2023-11-30T02:55:18.378Z,99568.94
2023-11-30T02:57:44.845Z,99567.53
2023-11-30T03:00:11.689Z,99569.56
2023-11-30T03:02:38.405Z,99561.44
2023-11-30T03:05:05.097Z,99554.47
2023-11-30T03:07:31.654Z,99556.66
2023-11-30T03:09:58.410Z,99556.84
2023-11-30T03:12:25.059Z,99565.00
2023-11-30T03:14:51.735Z,99559.72
2023-11-30T03:17:18.335Z,99552.56
2023-11-30T03:19:44.923Z,99556.31
2023-11-30T03:22:11.631Z,99534.72
2023-11-30T03:24:38.161Z,99551.28
2023-11-30T03:27:04.979Z,99548.50
2023-11-30T03:29:31.482Z,99509.28
2023-11-30T03:31:58.534Z,99540.00
2023-11-30T03:34:25.142Z,99534.00
2023-11-30T03:36:52.072Z,99529.78
2023-11-30T03:39:18.870Z,99528.75
2023-11-30T03:41:45.390Z,99524.75
2023-11-30T03:44:11.939Z,99534.09
2023-11-30T03:46:38.732Z,99541.34
2023-11-30T03:49:05.592Z,99543.59
2023-11-30T03:51:32.278Z,99539.09
2023-11-30T03:53:58.809Z,99537.19
2023-11-30T03:56:25.415Z,99550.78
2023-11-30T03:58:52.215Z,99542.03
2023-11-30T04:01:23.873Z,99524.25
2023-11-30T04:03:51.000Z,99547.50
2023-11-30T04:06:22.011Z,99551.88
2023-11-30T04:08:48.938Z,99553.41
2023-11-30T04:11:17.227Z,99547.25
2023-11-30T04:13:47.484Z,99546.25
2023-11-30T04:16:18.343Z,99554.56
2023-11-30T04:18:45.163Z,99556.91
2023-11-30T04:21:12.088Z,99553.06
2023-11-30T04:23:38.661Z,99549.53
2023-11-30T04:26:05.363Z,99511.84
2023-11-30T04:28:31.926Z,99541.38
2023-11-30T04:30:58.847Z,99520.63
2023-11-30T04:33:25.446Z,99540.72
2023-11-30T04:35:52.012Z,99527.53
2023-11-30T04:38:18.580Z,99535.97
2023-11-30T04:40:45.112Z,99534.19
2023-11-30T04:43:11.927Z,99515.38
2023-11-30T04:45:38.467Z,99531.53
2023-11-30T04:48:05.837Z,99524.31
2023-11-30T04:50:32.799Z,99509.25
2023-11-30T04:52:59.295Z,99521.81
2023-11-30T04:55:25.815Z,99517.25
2023-11-30T04:57:52.400Z,99514.88
2023-11-30T05:00:19.527Z,99510.19
2023-11-30T05:02:54.533Z,99519.13
2023-11-30T05:05:21.337Z,99517.03
2023-11-30T05:07:48.151Z,99522.91
2023-11-30T05:10:14.751Z,99527.53
2023-11-30T05:12:41.460Z,99531.84
2023-11-30T05:15:08.344Z,99521.28
2023-11-30T05:17:34.926Z,99522.84
2023-11-30T05:20:04.577Z,99527.78
2023-11-30T05:22:32.406Z,99520.22
2023-11-30T05:24:59.331Z,99497.31
2023-11-30T05:27:26.242Z,99519.06
2023-11-30T05:29:52.860Z,99498.00
2023-11-30T05:32:19.797Z,99515.53
2023-11-30T05:34:46.354Z,99523.81
2023-11-30T05:37:12.854Z,99514.84
2023-11-30T05:39:39.529Z,99492.50
2023-11-30T05:42:06.092Z,99523.06
2023-11-30T05:44:33.115Z,99523.25
2023-11-30T05:46:59.929Z,99522.28
2023-11-30T05:49:26.505Z,99515.66
2023-11-30T05:51:53.740Z,99507.13
2023-11-30T05:54:20.746Z,99501.47
2023-11-30T05:56:47.319Z,99497.50
2023-11-30T05:59:14.824Z,99478.38
2023-11-30T06:01:41.402Z,99503.63
2023-11-30T06:04:08.353Z,99486.38
2023-11-30T06:06:34.949Z,99507.31
2023-11-30T06:09:01.586Z,99508.28
2023-11-30T06:11:28.200Z,99499.03
2023-11-30T06:13:55.036Z,99507.97
2023-11-30T06:16:21.689Z,99506.50
2023-11-30T06:18:48.333Z,99501.94
2023-11-30T06:21:14.922Z,99520.59
2023-11-30T06:23:41.641Z,99521.19
2023-11-30T06:26:09.250Z,99511.84
2023-11-30T06:28:35.773Z,99510.75
2023-11-30T06:31:02.840Z,99518.47
2023-11-30T06:33:29.677Z,99503.84
2023-11-30T06:35:56.213Z,99510.63
2023-11-30T06:38:22.696Z,99493.59
2023-11-30T06:40:50.183Z,99482.75
2023-11-30T06:43:16.887Z,99509.25
2023-11-30T06:45:43.555Z,99512.66
2023-11-30T06:48:10.347Z,99496.44
2023-11-30T06:50:36.910Z,99503.28
2023-11-30T06:53:03.496Z,99501.81
2023-11-30T06:55:30.028Z,99502.38
2023-11-30T06:57:56.564Z,99492.31
2023-11-30T07:00:23.403Z,99516.03
2023-11-30T07:02:50.020Z,99507.72
2023-11-30T07:05:16.584Z,99507.16
2023-11-30T07:07:43.114Z,99512.84
2023-11-30T07:10:11.216Z,99498.72
2023-11-30T07:12:37.871Z,99500.34
2023-11-30T07:15:05.094Z,99500.25
2023-11-30T07:17:31.833Z,99507.66
2023-11-30T07:19:58.513Z,99508.59
2023-11-30T07:22:26.504Z,99501.41
2023-11-30T07:24:53.453Z,99497.59
2023-11-30T07:27:20.795Z,99464.34
2023-11-30T07:29:48.047Z,99501.31
2023-11-30T07:32:16.554Z,99494.41
2023-11-30T07:34:43.826Z,99475.09
2023-11-30T07:37:10.436Z,99481.50
2023-11-30T07:39:37.998Z,99479.13
2023-11-30T07:42:07.545Z,99482.28
2023-11-30T07:44:34.242Z,99480.47
2023-11-30T07:47:01.268Z,99483.81
2023-11-30T07:49:27.828Z,99495.47
2023-11-30T07:51:54.358Z,99493.69
2023-11-30T07:54:20.901Z,99485.16
2023-11-30T07:56:47.723Z,99474.81
2023-11-30T07:59:14.298Z,99495.34
2023-11-30T08:01:41.399Z,99474.63
2023-11-30T08:04:08.702Z,99482.44
2023-11-30T08:06:35.565Z,99485.50
2023-11-30T08:09:02.423Z,99487.81
2023-11-30T08:11:30.052Z,99491.84
2023-11-30T08:13:56.783Z,99490.50
2023-11-30T08:16:23.995Z,99491.97
2023-11-30T08:18:50.584Z,99492.38
2023-11-30T08:21:17.210Z,99480.19
2023-11-30T08:23:45.295Z,99498.00
2023-11-30T08:26:13.031Z,99496.00
2023-11-30T08:28:39.934Z,99495.78
2023-11-30T08:31:07.094Z,99482.31
2023-11-30T08:33:34.424Z,99485.94
2023-11-30T08:36:01.687Z,99493.22
2023-11-30T08:38:28.337Z,99495.09
2023-11-30T08:40:55.022Z,99504.13
2023-11-30T08:43:21.565Z,99504.59
2023-11-30T08:45:48.394Z,99485.50
2023-11-30T08:48:15.778Z,99495.69
2023-11-30T08:50:42.622Z,99473.88
2023-11-30T08:53:09.191Z,99482.41
2023-11-30T08:55:36.056Z,99490.34
2023-11-30T08:58:02.621Z,99495.09
2023-11-30T09:00:29.202Z,99483.19
2023-11-30T09:02:57.553Z,99473.13
2023-11-30T09:05:24.916Z,99474.44
2023-11-30T09:07:51.900Z,99469.13
2023-11-30T09:10:20.255Z,99477.91
2023-11-30T09:12:47.240Z,99474.69
2023-11-30T09:15:14.331Z,99474.69
2023-11-30T09:17:41.507Z,99470.16
2023-11-30T09:20:09.850Z,99463.28
2023-11-30T09:22:37.055Z,99478.16
2023-11-30T09:25:04.584Z,99480.53
2023-11-30T09:27:31.126Z,99486.63
2023-11-30T09:29:57.811Z,99481.53
2023-11-30T09:32:24.324Z,99475.38
2023-11-30T09:34:50.891Z,99480.53
2023-11-30T09:37:17.445Z,99479.47
2023-11-30T09:39:45.704Z,99486.66
2023-11-30T09:42:17.195Z,99477.88
2023-11-30T09:44:44.464Z,99480.56
2023-11-30T09:47:14.356Z,99474.69
2023-11-30T09:49:41.234Z,99476.53
2023-11-30T09:52:08.098Z,99466.72
2023-11-30T09:54:35.643Z,99472.00
2023-11-30T09:57:02.299Z,99476.72
2023-11-30T09:59:29.571Z,99474.41
2023-11-30T10:02:03.492Z,99484.53
2023-11-30T10:04:32.353Z,99480.03
2023-11-30T10:06:59.038Z,99473.91
2023-11-30T10:09:25.847Z,99476.81
2023-11-30T10:11:53.447Z,99455.56
2023-11-30T10:14:20.407Z,99465.31
2023-11-30T10:16:48.513Z,99458.38
2023-11-30T10:19:19.587Z,99457.63
2023-11-30T10:21:46.313Z,99472.03
2023-11-30T10:24:14.282Z,99452.66
2023-11-30T10:26:43.837Z,99468.06
2023-11-30T10:29:13.662Z,99468.56
2023-11-30T10:31:41.397Z,99467.66
2023-11-30T10:34:12.795Z,99467.25
2023-11-30T10:36:41.354Z,99469.13
2023-11-30T10:39:17.770Z,99473.09
2023-11-30T10:41:49.566Z,99466.44
2023-11-30T10:44:25.435Z,99455.03
2023-11-30T10:46:55.147Z,99459.78
2023-11-30T10:49:26.035Z,99461.41
2023-11-30T10:51:56.129Z,99455.56
2023-11-30T10:54:26.746Z,99454.47
2023-11-30T10:56:53.991Z,99450.50
2023-11-30T10:59:23.391Z,99446.81
2023-11-30T11:01:50.982Z,99447.84
2023-11-30T11:04:18.036Z,99453.97
2023-11-30T11:06:45.172Z,99452.94
2023-11-30T11:09:16.719Z,99446.25
2023-11-30T11:11:46.732Z,99458.75
2023-11-30T11:14:42.705Z,99460.88
2023-11-30T11:17:11.038Z,99459.56
2023-11-30T11:19:45.028Z,99454.41
2023-11-30T11:22:15.612Z,99458.31
2023-11-30T11:24:42.429Z,99447.03
2023-11-30T11:27:09.158Z,99458.47
2023-11-30T11:29:42.453Z,99455.88
2023-11-30T11:32:12.341Z,99454.59
2023-11-30T11:34:39.041Z,99455.44
2023-11-30T11:37:05.611Z,99458.59
2023-11-30T11:39:32.163Z,99453.16
2023-11-30T11:41:58.834Z,99457.44
2023-11-30T11:44:25.821Z,99454.25
2023-11-30T11:46:53.248Z,99455.03
2023-11-30T11:49:19.852Z,99450.78
2023-11-30T11:51:46.958Z,99450.38
2023-11-30T11:54:21.477Z,99438.78
2023-11-30T11:56:52.657Z,99441.09
2023-11-30T11:59:22.971Z,99450.28
2023-11-30T12:01:51.208Z,99438.31
2023-11-30T12:04:30.358Z,99434.66
2023-11-30T12:06:58.155Z,99427.88
2023-11-30T12:09:25.226Z,99429.66
2023-11-30T12:11:52.687Z,99422.91
2023-11-30T12:14:21.534Z,99425.59
2023-11-30T12:16:48.606Z,99433.88
2023-11-30T12:19:20.629Z,99425.44
2023-11-30T12:21:47.609Z,99419.97
2023-11-30T12:24:14.692Z,99414.88
2023-11-30T12:26:41.571Z,99428.09
2023-11-30T12:29:09.198Z,99430.34
2023-11-30T12:31:35.837Z,99418.66
2023-11-30T12:34:02.616Z,99427.06
2023-11-30T12:36:29.374Z,99421.84
2023-11-30T12:38:56.152Z,99420.25
2023-11-30T12:41:22.767Z,99401.91
2023-11-30T12:43:49.339Z,99401.81
2023-11-30T12:46:16.488Z,99413.88
2023-11-30T12:48:44.267Z,99425.53
2023-11-30T12:51:10.960Z,99417.81
2023-11-30T12:53:37.758Z,99410.63
2023-11-30T12:56:05.243Z,99419.84
2023-11-30T12:58:32.761Z,99421.47
2023-11-30T13:00:59.316Z,99409.09
2023-11-30T13:03:27.557Z,99406.31
2023-11-30T13:05:54.143Z,99403.78
2023-11-30T13:08:21.844Z,99402.47
2023-11-30T13:10:48.503Z,99401.94
2023-11-30T13:13:15.012Z,99419.69
2023-11-30T13:15:43.177Z,99408.31
2023-11-30T13:18:10.207Z,99411.41
2023-11-30T13:20:36.953Z,99388.44
2023-11-30T13:23:03.564Z,99417.38
2023-11-30T13:25:31.224Z,99410.44
2023-11-30T13:27:57.821Z,99408.53
2023-11-30T13:30:28.205Z,99413.28
2023-11-30T13:32:57.213Z,99404.00
2023-11-30T13:35:25.136Z,99407.09
2023-11-30T13:37:51.717Z,99405.97
2023-11-30T13:40:20.611Z,99408.50
2023-11-30T13:42:47.537Z,99409.00
2023-11-30T13:45:14.266Z,99403.28
2023-11-30T13:47:42.786Z,99391.72
2023-11-30T13:50:20.489Z,99406.69
2023-11-30T13:52:57.052Z,99403.28
2023-11-30T13:55:23.833Z,99404.50
2023-11-30T13:57:50.365Z,99386.78
2023-11-30T14:00:17.596Z,99414.41
2023-11-30T14:02:44.453Z,99408.31
2023-11-30T14:05:11.263Z,99420.91
2023-11-30T14:07:37.951Z,99425.81
2023-11-30T14:10:08.223Z,99420.19
2023-11-30T14:12:35.149Z,99422.22
2023-11-30T14:15:01.977Z,99413.06
2023-11-30T14:17:31.063Z,99416.63
2023-11-30T14:19:58.346Z,99408.03
2023-11-30T14:22:25.260Z,99412.44
2023-11-30T14:24:51.812Z,99424.56
2023-11-30T14:27:18.410Z,99435.84
2023-11-30T14:29:45.210Z,99419.41
2023-11-30T14:32:11.907Z,99422.38
2023-11-30T14:34:38.954Z,99427.31
2023-11-30T14:37:05.475Z,99415.97
2023-11-30T14:39:32.301Z,99437.91
2023-11-30T14:41:59.345Z,99427.69
2023-11-30T14:44:26.784Z,99423.97
2023-11-30T14:46:53.692Z,99428.72
2023-11-30T14:49:20.424Z,99426.97
2023-11-30T14:51:47.172Z,99439.66
2023-11-30T14:54:15.063Z,99438.09
2023-11-30T14:56:41.812Z,99440.63
2023-11-30T14:59:09.654Z,99441.44
2023-11-30T15:01:36.351Z,99445.72
2023-11-30T15:04:03.151Z,99439.13
2023-11-30T15:06:31.677Z,99452.06
2023-11-30T15:08:58.402Z,99448.53
2023-11-30T15:11:24.991Z,99451.75
2023-11-30T15:13:51.629Z,99455.06
2023-11-30T15:16:18.167Z,99430.38
2023-11-30T15:18:45.018Z,99441.13
2023-11-30T15:21:11.869Z,99428.41
2023-11-30T15:23:38.450Z,99459.09
2023-11-30T15:26:05.712Z,99445.38
2023-11-30T15:28:32.339Z,99461.59
2023-11-30T15:30:59.673Z,99457.06
2023-11-30T15:33:27.600Z,99455.19
2023-11-30T15:35:54.090Z,99455.28
2023-11-30T15:38:20.772Z,99457.38
2023-11-30T15:40:47.365Z,99443.63
2023-11-30T15:43:13.897Z,99446.81
2023-11-30T15:45:40.472Z,99430.25
2023-11-30T15:48:07.377Z,99441.75
2023-11-30T15:50:34.029Z,99451.53
2023-11-30T15:53:00.840Z,99449.88
2023-11-30T15:55:27.383Z,99454.69
2023-11-30T15:57:54.216Z,99450.88
2023-11-30T16:00:23.646Z,99463.78
2023-11-30T16:02:50.649Z,99466.38
2023-11-30T16:05:17.301Z,99453.88
2023-11-30T16:07:44.499Z,99462.34
2023-11-30T16:10:11.570Z,99459.00
2023-11-30T16:12:38.159Z,99441.44
2023-11-30T16:15:07.248Z,99455.53
2023-11-30T16:17:33.867Z,99460.09
2023-11-30T16:20:01.707Z,99460.09
2023-11-30T16:22:28.440Z,99479.75
2023-11-30T16:24:55.413Z,99469.66
2023-11-30T16:27:22.136Z,99483.38
2023-11-30T16:29:48.853Z,99480.81
2023-11-30T16:32:15.366Z,99484.25
2023-11-30T16:34:41.883Z,99493.94
2023-11-30T16:37:08.484Z,99488.78
2023-11-30T16:39:36.523Z,99491.81
2023-11-30T16:42:03.970Z,99489.06
2023-11-30T16:44:30.811Z,99482.47
2023-11-30T16:46:57.500Z,99492.66
2023-11-30T16:49:24.412Z,99493.41
2023-11-30T16:51:55.582Z,99493.59
2023-11-30T16:54:26.399Z,99489.91
2023-11-30T16:56:53.118Z,99485.34
2023-11-30T16:59:19.852Z,99480.34
2023-11-30T17:01:46.562Z,99487.25
2023-11-30T17:04:16.174Z,99486.22
2023-11-30T17:06:42.857Z,99490.22
2023-11-30T17:09:09.803Z,99496.53
2023-11-30T17:11:41.256Z,99504.06
2023-11-30T17:14:07.926Z,99498.91
2023-11-30T17:16:36.662Z,99503.16
2023-11-30T17:19:03.244Z,99502.38
2023-11-30T17:21:29.792Z,99487.59
2023-11-30T17:23:59.406Z,99471.59
2023-11-30T17:26:26.001Z,99496.41
2023-11-30T17:28:53.370Z,99506.38
2023-11-30T17:31:19.906Z,99481.09
2023-11-30T17:33:47.798Z,99493.06
2023-11-30T17:36:15.317Z,99499.13
2023-11-30T17:38:41.985Z,99502.44
2023-11-30T17:41:09.568Z,99503.44
2023-11-30T17:43:36.212Z,99495.66
2023-11-30T17:46:04.127Z,99498.72
2023-11-30T17:48:30.676Z,99503.25
2023-11-30T17:50:57.265Z,99501.19
2023-11-30T17:53:23.792Z,99493.41
2023-11-30T17:55:50.362Z,99505.66
2023-11-30T17:58:16.902Z,99502.75
2023-11-30T18:00:43.750Z,99495.44
2023-11-30T18:03:10.475Z,99496.13
2023-11-30T18:05:37.077Z,99504.53
2023-11-30T18:08:03.818Z,99499.91
2023-11-30T18:10:30.322Z,99504.22
2023-11-30T18:12:57.101Z,99509.00
2023-11-30T18:15:23.785Z,99507.19
2023-11-30T18:17:50.829Z,99512.28
2023-11-30T18:20:18.486Z,99496.84
2023-11-30T18:22:45.723Z,99509.38
2023-11-30T18:25:12.233Z,99509.19
2023-11-30T18:27:38.767Z,99516.91
2023-11-30T18:30:06.120Z,99514.94
2023-11-30T18:32:33.245Z,99510.69
2023-11-30T18:34:59.895Z,99505.44
2023-11-30T18:37:26.535Z,99512.16
2023-11-30T18:39:53.138Z,99516.66
2023-11-30T18:42:20.039Z,99519.84
2023-11-30T18:44:46.712Z,99526.19
2023-11-30T18:47:16.048Z,99489.34
2023-11-30T18:49:42.785Z,99520.25
2023-11-30T18:52:09.344Z,99513.00
2023-11-30T18:54:36.085Z,99520.22
2023-11-30T18:57:02.885Z,99514.56
2023-11-30T18:59:30.574Z,99524.72
2023-11-30T19:01:58.783Z,99525.28
2023-11-30T19:04:25.644Z,99537.41
2023-11-30T19:06:52.304Z,99530.75
2023-11-30T19:09:19.559Z,99541.44
2023-11-30T19:11:46.483Z,99540.41
2023-11-30T19:14:13.009Z,99539.25
2023-11-30T19:16:41.731Z,99548.25
2023-11-30T19:19:09.577Z,99531.25
2023-11-30T19:21:39.899Z,99549.06
2023-11-30T19:24:07.098Z,99520.47
2023-11-30T19:26:33.626Z,99544.66
2023-11-30T19:29:00.304Z,99541.22
2023-11-30T19:31:27.210Z,99550.25
2023-11-30T19:33:54.200Z,99559.97
2023-11-30T19:36:21.956Z,99568.59
2023-11-30T19:38:48.580Z,99570.59
2023-11-30T19:41:15.444Z,99570.34
2023-11-30T19:43:42.075Z,99559.09
2023-11-30T19:46:08.770Z,99571.59
2023-11-30T19:48:35.455Z,99575.34
2023-11-30T19:51:02.052Z,99562.22
2023-11-30T19:53:28.616Z,99575.41
2023-11-30T19:55:55.284Z,99560.63
2023-11-30T19:58:21.837Z,99568.63
2023-11-30T20:00:49.345Z,99571.66
2023-11-30T20:03:15.952Z,99572.44
2023-11-30T20:05:42.583Z,99582.63
2023-11-30T20:08:09.680Z,99579.53
2023-11-30T20:10:36.467Z,99577.16
2023-11-30T20:13:03.854Z,99580.97
2023-11-30T20:15:31.546Z,99580.06
2023-11-30T20:17:58.548Z,99580.44
2023-11-30T20:20:25.857Z,99573.03
2023-11-30T20:22:52.641Z,99578.47
2023-11-30T20:25:19.289Z,99563.63
2023-11-30T20:27:46.134Z,99570.34
2023-11-30T20:30:13.365Z,99586.03
2023-11-30T20:32:40.590Z,99577.31
2023-11-30T20:35:07.609Z,99587.91
2023-11-30T20:37:34.257Z,99593.66
2023-11-30T20:40:00.994Z,99590.56
2023-11-30T20:42:28.657Z,99590.97
2023-11-30T20:44:55.505Z,99583.38
2023-11-30T20:47:22.282Z,99575.63
2023-11-30T20:49:48.953Z,99587.34
2023-11-30T20:52:16.216Z,99588.41
2023-11-30T20:54:43.542Z,99588.22
2023-11-30T20:57:12.763Z,99597.88
2023-11-30T20:59:40.613Z,99561.91
2023-11-30T21:02:08.550Z,99575.00
2023-11-30T21:04:36.661Z,99590.66
2023-11-30T21:07:03.552Z,99586.28
2023-11-30T21:09:30.320Z,99593.47
2023-11-30T21:11:56.974Z,99590.38
2023-11-30T21:14:23.924Z,99602.44
2023-11-30T21:16:51.474Z,99577.16
2023-11-30T21:19:18.489Z,99597.06
2023-11-30T21:21:47.320Z,99601.00
2023-11-30T21:24:15.028Z,99599.13
2023-11-30T21:26:41.654Z,99602.81
2023-11-30T21:29:08.177Z,99596.44
2023-11-30T21:31:34.883Z,99598.50
2023-11-30T21:34:01.603Z,99586.03
2023-11-30T21:36:28.215Z,99591.31
2023-11-30T21:38:54.837Z,99602.19
2023-11-30T21:41:21.794Z,99607.72
2023-11-30T21:43:48.371Z,99609.66
2023-11-30T21:46:15.111Z,99588.19
2023-11-30T21:48:41.883Z,99592.41
2023-11-30T21:51:08.990Z,99612.44
2023-11-30T21:53:36.205Z,99600.91
2023-11-30T21:56:02.889Z,99608.13
2023-11-30T21:58:29.569Z,99596.25
2023-11-30T22:00:56.396Z,99610.81
2023-11-30T22:03:23.622Z,99622.16
2023-11-30T22:05:51.825Z,99623.34
2023-11-30T22:08:18.474Z,99625.22
2023-11-30T22:10:45.270Z,99626.75
2023-11-30T22:13:11.816Z,99630.13
2023-11-30T22:15:38.407Z,99622.47
2023-11-30T22:18:05.748Z,99606.47
2023-11-30T22:20:32.450Z,99633.06
2023-11-30T22:22:59.377Z,99632.81
2023-11-30T22:25:25.980Z,99626.28
2023-11-30T22:27:52.564Z,99638.56
2023-11-30T22:30:19.807Z,99629.88
2023-11-30T22:32:46.359Z,99628.97
2023-11-30T22:35:13.000Z,99626.31
2023-11-30T22:37:39.574Z,99635.78
2023-11-30T22:40:06.886Z,99636.28
2023-11-30T22:42:33.833Z,99645.94
2023-11-30T22:45:02.181Z,99636.38
2023-11-30T22:47:29.173Z,99639.44
2023-11-30T22:49:56.161Z,99644.72
2023-11-30T22:52:26.327Z,99649.56
2023-11-30T22:54:53.848Z,99645.72
2023-11-30T22:57:20.541Z,99647.88
2023-11-30T22:59:47.384Z,99653.00
2023-11-30T23:02:14.247Z,99644.38
2023-11-30T23:04:41.138Z,99644.25
2023-11-30T23:07:08.076Z,99645.03
2023-11-30T23:09:34.726Z,99635.13
2023-11-30T23:12:01.358Z,99655.31
2023-11-30T23:14:27.992Z,99649.91
2023-11-30T23:16:54.565Z,99656.56
2023-11-30T23:19:21.372Z,99660.13
2023-11-30T23:21:48.014Z,99658.44
2023-11-30T23:24:22.826Z,99659.91
2023-11-30T23:26:53.005Z,99661.25
2023-11-30T23:29:19.531Z,99664.88
2023-11-30T23:31:46.142Z,99667.19
2023-11-30T23:34:12.866Z,99674.09
2023-11-30T23:36:39.377Z,99670.25
2023-11-30T23:39:06.005Z,99691.06
2023-11-30T23:41:32.855Z,99678.44
2023-11-30T23:44:00.909Z,99695.78
2023-11-30T23:46:29.192Z,99679.06
2023-11-30T23:48:58.196Z,99694.75
2023-11-30T23:51:24.726Z,99683.09
2023-11-30T23:53:51.258Z,99695.88
2023-11-30T23:56:17.788Z,99703.72
2023-11-30T23:58:44.620Z,99688.94
